Time;durP1;ratioP1;P1;durP2;ratioP2;P2;SDS_P1;SDS_P2;PMS_P1;PMS_P2;Temp;Humidity;BMP_temperature;BMP_pressure;BME280_temperature;BME280_humidity;BME280_pressure;Samples;Min_cycle;Max_cycle;Signal;HPM_P1;HPM_P2
2023/04/09 00:00:15;;;;;;;30.17;16.85;;;;;;;10.96;71.22;102702.38;5059505;28;20033;-79
2023/04/09 00:02:43;;;;;;;29.23;17.48;;;;;;;11.17;70.63;102690.19;5044020;28;20035;-80
2023/04/09 00:05:09;;;;;;;28.15;17.10;;;;;;;11.09;70.68;102698.56;5059661;28;20486;-80
2023/04/09 00:07:40;;;;;;;27.55;17.05;;;;;;;11.13;71.21;102700.44;5064028;28;20044;-79
2023/04/09 00:10:06;;;;;;;27.40;17.05;;;;;;;11.11;71.13;102703.00;5059632;28;20036;-79
2023/04/09 00:12:31;;;;;;;29.38;17.48;;;;;;;11.06;71.51;102703.63;5063430;28;20032;-79
2023/04/09 00:14:57;;;;;;;30.70;18.10;;;;;;;11.22;70.79;102706.06;5062950;28;20128;-80
2023/04/09 00:17:22;;;;;;;29.80;17.65;;;;;;;11.11;70.56;102696.88;5061598;28;20035;-81
2023/04/09 00:19:47;;;;;;;31.15;17.33;;;;;;;11.36;70.52;102702.25;5067189;28;20056;-80
2023/04/09 00:22:13;;;;;;;28.50;16.85;;;;;;;11.44;69.91;102703.44;5062419;28;20267;-81
2023/04/09 00:24:39;;;;;;;31.67;17.98;;;;;;;11.46;69.79;102703.50;5065111;28;20037;-80
2023/04/09 00:27:04;;;;;;;29.20;17.25;;;;;;;11.39;69.64;102695.44;5064572;28;20039;-81
2023/04/09 00:29:30;;;;;;;28.70;17.25;;;;;;;11.31;70.05;102702.06;5068025;28;20051;-82
2023/04/09 00:31:55;;;;;;;29.70;17.77;;;;;;;11.27;70.47;102697.56;5046719;28;20097;-80
2023/04/09 00:34:20;;;;;;;31.48;18.58;;;;;;;11.32;70.01;102695.13;5044590;28;20092;-80
2023/04/09 00:36:46;;;;;;;30.42;17.95;;;;;;;11.33;69.48;102692.59;5065167;28;20039;-80
2023/04/09 00:39:15;;;;;;;31.08;18.17;;;;;;;11.27;69.81;102683.63;5059921;28;20563;-80
2023/04/09 00:41:40;;;;;;;32.45;17.55;;;;;;;11.24;70.22;102692.22;5045138;28;20032;-79
2023/04/09 00:44:14;;;;;;;32.83;17.75;;;;;;;11.25;70.13;102693.09;5061305;28;20032;-82
2023/04/09 00:46:42;;;;;;;;;;;;;;;11.30;69.76;102684.63;5065893;28;20062;-79
2023/04/09 00:49:11;;;;;;;31.92;17.30;;;;;;;11.29;69.26;102681.94;5064069;28;19920;-80
2023/04/09 00:51:37;;;;;;;33.60;18.23;;;;;;;11.31;69.47;102682.91;5067432;28;20043;-80
2023/04/09 00:54:02;;;;;;;31.80;18.00;;;;;;;11.21;69.88;102681.66;5061853;28;20062;-83
2023/04/09 00:56:31;;;;;;;32.85;17.45;;;;;;;11.19;69.36;102679.81;5066085;28;20029;-81
2023/04/09 00:59:00;;;;;;;38.00;19.77;;;;;;;11.03;70.76;102677.44;5066088;28;20040;-82
2023/04/09 01:01:25;;;;;;;36.30;19.30;;;;;;;10.98;71.04;102670.28;5062061;28;20039;-83
2023/04/09 01:03:53;;;;;;;35.40;19.15;;;;;;;11.10;70.58;102677.72;5064236;28;20028;-78
2023/04/09 01:06:37;;;;;;;32.65;18.25;;;;;;;11.18;70.20;102680.63;5070051;22;20041;-47
2023/04/09 01:09:26;;;;;;;35.10;19.05;;;;;;;11.10;69.54;102677.72;5069738;28;20390;-45
2023/04/09 01:11:55;;;;;;;35.38;18.70;;;;;;;11.05;69.42;102683.59;5085785;28;20043;-44
2023/04/09 01:14:31;;;;;;;32.25;18.45;;;;;;;11.02;69.42;102676.53;5081819;28;20032;-44
2023/04/09 01:17:04;;;;;;;32.05;18.10;;;;;;;11.00;69.90;102683.41;5073301;28;20040;-45
2023/04/09 01:19:53;;;;;;;34.38;18.33;;;;;;;10.92;69.86;102685.69;5075650;28;20031;-43
2023/04/09 01:22:34;;;;;;;34.65;18.73;;;;;;;10.97;70.09;102680.69;5081844;28;20134;-45
2023/04/09 01:25:05;;;;;;;29.88;17.40;;;;;;;10.97;69.67;102684.19;5077385;28;20020;-45
2023/04/09 01:27:42;;;;;;;35.50;17.90;;;;;;;10.90;69.30;102683.88;5074800;28;20671;-48
2023/04/09 01:30:09;;;;;;;35.78;18.75;;;;;;;10.82;70.22;102685.25;5079265;28;20036;-45
2023/04/09 01:32:37;;;;;;;35.83;18.83;;;;;;;10.77;69.85;102686.81;5082279;28;20498;-44
2023/04/09 01:35:04;;;;;;;31.60;17.67;;;;;;;10.79;69.86;102691.28;5079434;28;20086;-45
2023/04/09 01:37:30;;;;;;;35.38;19.02;;;;;;;10.73;69.78;102684.91;5083681;28;20090;-45
2023/04/09 01:39:55;;;;;;;33.10;18.83;;;;;;;10.73;69.93;102685.81;5087094;28;20039;-45
2023/04/09 01:42:21;;;;;;;35.30;18.33;;;;;;;10.72;70.19;102681.41;5082694;28;20039;-43
2023/04/09 01:44:47;;;;;;;35.72;18.55;;;;;;;10.70;70.13;102683.03;5086382;28;20028;-43
2023/04/09 01:47:12;;;;;;;35.40;19.10;;;;;;;10.78;70.24;102680.75;5083212;28;20547;-44
2023/04/09 01:49:40;;;;;;;33.92;18.60;;;;;;;10.80;70.43;102679.97;5086183;28;20554;-47
2023/04/09 01:52:06;;;;;;;32.58;18.20;;;;;;;10.86;70.29;102679.34;5083504;28;20047;-46
2023/04/09 01:54:31;;;;;;;33.40;19.05;;;;;;;10.89;70.30;102676.88;5086951;28;20028;-45
2023/04/09 01:56:57;;;;;;;33.42;18.67;;;;;;;10.82;70.15;102683.56;5086890;28;20531;-44
2023/04/09 01:59:22;;;;;;;32.92;18.00;;;;;;;10.86;70.09;102688.06;5083481;28;20028;-45
2023/04/09 02:02:05;;;;;;;32.08;18.08;;;;;;;10.90;69.80;102684.75;5086589;28;20107;-43
2023/04/09 02:04:37;;;;;;;34.83;18.38;;;;;;;10.88;70.20;102673.38;5086588;28;20031;-57
2023/04/09 02:07:13;;;;;;;32.97;18.35;;;;;;;10.95;70.40;102680.63;5087549;28;20035;-47
2023/04/09 02:09:40;;;;;;;34.92;18.75;;;;;;;10.95;70.40;102670.19;5090667;28;20141;-44
2023/04/09 02:12:13;;;;;;;32.42;18.58;;;;;;;11.01;70.32;102674.75;5084607;28;20092;-47
2023/04/09 02:14:40;;;;;;;33.95;18.52;;;;;;;10.96;70.56;102673.69;5086032;28;20494;-44
2023/04/09 02:17:05;;;;;;;35.78;18.48;;;;;;;10.99;70.75;102672.06;5084034;28;20039;-49
2023/04/09 02:19:57;;;;;;;35.95;18.65;;;;;;;10.90;70.98;102663.00;5087229;28;20024;-44
2023/04/09 02:22:22;;;;;;;36.03;18.38;;;;;;;10.92;70.94;102661.31;5078625;28;20032;-43
2023/04/09 02:24:47;;;;;;;32.92;18.77;;;;;;;11.08;70.67;102655.00;5086071;28;20059;-45
2023/04/09 02:27:13;;;;;;;35.45;19.08;;;;;;;10.93;70.68;102656.16;5083270;28;20555;-45
2023/04/09 02:29:39;;;;;;;31.50;17.98;;;;;;;11.12;70.23;102651.69;5086868;28;20040;-44
2023/04/09 02:32:05;;;;;;;35.08;18.67;;;;;;;11.14;70.23;102656.16;5064786;28;20494;-44
2023/04/09 02:34:30;;;;;;;33.45;18.65;;;;;;;11.11;70.79;102649.91;5087072;28;20070;-58
2023/04/09 02:36:55;;;;;;;34.17;18.38;;;;;;;11.15;70.75;102652.72;5090386;28;20111;-45
2023/04/09 02:39:20;;;;;;;34.20;18.50;;;;;;;11.17;70.80;102651.03;5086009;28;20509;-44
2023/04/09 02:41:46;;;;;;;34.53;18.27;;;;;;;11.09;70.84;102648.97;5086378;28;20036;-45
2023/04/09 02:44:11;;;;;;;35.08;18.70;;;;;;;10.96;71.19;102650.19;5084242;28;20035;-44
2023/04/09 02:46:38;;;;;;;36.47;18.90;;;;;;;11.14;71.11;102643.09;5090320;28;20514;-45
2023/04/09 02:49:03;;;;;;;32.88;18.77;;;;;;;11.36;70.56;102643.06;5083516;28;20085;-45
2023/04/09 02:51:28;;;;;;;34.60;18.65;;;;;;;11.45;70.43;102641.66;5086873;28;20032;-43
2023/04/09 02:53:54;;;;;;;36.38;18.30;;;;;;;11.47;70.45;102642.59;5085239;28;20428;-44
2023/04/09 02:56:19;;;;;;;35.47;19.42;;;;;;;11.51;70.42;102637.56;5082133;28;20043;-43
2023/04/09 02:58:45;;;;;;;34.30;18.55;;;;;;;11.54;70.04;102636.75;5085244;28;20025;-44
2023/04/09 03:01:10;;;;;;;35.67;18.85;;;;;;;11.58;70.15;102633.47;5063932;28;20033;-46
2023/04/09 03:03:37;;;;;;;37.67;19.27;;;;;;;11.56;70.45;102632.50;5087004;28;20394;-44
2023/04/09 03:06:03;;;;;;;34.50;18.38;;;;;;;11.55;70.41;102628.09;5065856;28;20028;-45
2023/04/09 03:08:28;;;;;;;32.88;18.10;;;;;;;11.48;70.91;102634.81;5087781;28;20039;-46
2023/04/09 03:10:54;;;;;;;35.20;19.13;;;;;;;11.52;70.49;102641.06;5088444;28;20063;-45
2023/04/09 03:13:19;;;;;;;35.40;18.42;;;;;;;11.66;70.25;102632.88;5084925;28;20032;-47
2023/04/09 03:15:44;;;;;;;33.08;17.95;;;;;;;11.69;71.01;102626.91;5088213;28;20553;-43
2023/04/09 03:18:10;;;;;;;33.28;18.60;;;;;;;11.76;70.62;102623.72;5084521;28;20028;-43
2023/04/09 03:20:38;;;;;;;35.67;18.27;;;;;;;11.83;70.40;102623.09;5089147;28;20077;-44
2023/04/09 03:23:03;;;;;;;36.83;18.92;;;;;;;11.81;71.04;102619.53;5083839;28;20036;-46
2023/04/09 03:25:29;;;;;;;34.90;18.83;;;;;;;11.96;70.41;102622.69;5086607;28;20031;-44
2023/04/09 03:27:54;;;;;;;33.67;17.85;;;;;;;11.94;70.58;102620.88;5086955;28;20490;-44
2023/04/09 03:30:19;;;;;;;35.08;18.55;;;;;;;12.03;70.71;102609.00;5080545;28;20529;-44
2023/04/09 03:32:45;;;;;;;33.70;18.60;;;;;;;12.10;70.44;102613.59;5084860;28;20097;-47
2023/04/09 03:35:10;;;;;;;36.00;18.75;;;;;;;12.09;70.69;102606.59;5081883;28;20077;-45
2023/04/09 03:37:35;;;;;;;34.25;18.45;;;;;;;12.17;70.70;102602.53;5084962;28;20054;-45
2023/04/09 03:40:01;;;;;;;39.58;18.70;;;;;;;12.12;70.63;102603.22;5081616;28;20028;-46
2023/04/09 03:42:27;;;;;;;35.40;18.35;;;;;;;12.14;70.76;102602.41;5085467;28;20097;-43
2023/04/09 03:44:53;;;;;;;33.53;18.58;;;;;;;12.18;70.75;102604.31;5084564;28;20098;-44
2023/04/09 03:47:19;;;;;;;32.83;18.15;;;;;;;12.30;69.99;102600.34;5080317;28;20126;-44
2023/04/09 03:49:44;;;;;;;31.95;17.40;;;;;;;12.42;69.90;102603.34;5084262;28;20481;-43
2023/04/09 03:52:09;;;;;;;31.90;17.88;;;;;;;12.37;69.62;102603.22;5080183;28;20553;-42
2023/04/09 03:54:35;;;;;;;30.48;17.58;;;;;;;12.60;69.13;102610.09;5084040;28;20024;-43
2023/04/09 03:57:00;;;;;;;30.95;17.52;;;;;;;12.59;69.00;102605.69;5081057;28;20085;-46
2023/04/09 03:59:26;;;;;;;30.77;17.85;;;;;;;12.70;68.52;102605.13;5084733;28;20032;-48
2023/04/09 04:01:51;;;;;;;28.55;17.27;;;;;;;12.71;68.50;102609.53;5065264;28;20115;-43
2023/04/09 04:04:16;;;;;;;31.02;17.48;;;;;;;12.74;68.45;102613.16;5079679;28;20027;-46
2023/04/09 04:06:41;;;;;;;29.75;17.75;;;;;;;12.82;67.74;102614.28;5083480;28;20531;-47
2023/04/09 04:09:07;;;;;;;30.50;17.83;;;;;;;12.81;67.85;102607.25;5080612;28;20047;-46
2023/04/09 04:11:32;;;;;;;29.10;18.00;;;;;;;12.87;67.42;102609.16;5083807;28;20044;-47
2023/04/09 04:13:57;;;;;;;29.77;18.13;;;;;;;12.84;67.08;102603.84;5081555;28;20192;-62
2023/04/09 04:16:23;;;;;;;29.17;17.38;;;;;;;12.95;67.13;102602.47;5082435;28;20043;-46
2023/04/09 04:18:48;;;;;;;29.83;18.17;;;;;;;12.90;66.86;102602.31;5084360;28;20035;-45
2023/04/09 04:21:15;;;;;;;29.05;17.17;;;;;;;12.98;66.99;102600.84;5080686;28;20561;-47
2023/04/09 04:23:40;;;;;;;27.85;17.48;;;;;;;12.94;67.07;102601.56;5083797;28;20028;-45
2023/04/09 04:26:09;;;;;;;27.98;17.80;;;;;;;12.96;67.03;102604.25;5080032;28;20032;-44
2023/04/09 04:28:36;;;;;;;30.65;18.20;;;;;;;12.89;66.78;102602.28;5083653;28;20028;-45
2023/04/09 04:31:01;;;;;;;31.27;17.75;;;;;;;12.95;67.07;102592.00;5061712;28;20036;-44
2023/04/09 04:33:27;;;;;;;30.88;18.33;;;;;;;12.94;66.72;102598.94;5084073;28;20039;-44
2023/04/09 04:35:52;;;;;;;29.33;18.00;;;;;;;12.93;66.63;102601.50;5083728;28;20032;-49
2023/04/09 04:38:17;;;;;;;31.77;18.42;;;;;;;12.92;66.74;102595.41;5081050;28;20075;-45
2023/04/09 04:40:43;;;;;;;33.28;19.40;;;;;;;12.85;66.90;102601.28;5084764;28;20032;-43
2023/04/09 04:43:08;;;;;;;28.15;17.25;;;;;;;12.86;66.93;102602.19;5080616;28;20085;-47
2023/04/09 04:45:33;;;;;;;29.20;18.10;;;;;;;13.04;66.53;102600.13;5084526;28;20039;-44
2023/04/09 04:47:59;;;;;;;29.33;18.85;;;;;;;13.05;66.17;102601.91;5083305;28;20119;-45
2023/04/09 04:50:24;;;;;;;30.95;18.23;;;;;;;13.04;66.22;102613.22;5085344;28;20043;-43
2023/04/09 04:52:49;;;;;;;30.30;18.45;;;;;;;13.13;66.13;102605.69;5084848;28;20040;-43
2023/04/09 04:55:15;;;;;;;31.88;19.20;;;;;;;13.06;65.68;102614.16;5079773;28;20406;-49
2023/04/09 04:57:40;;;;;;;31.08;18.52;;;;;;;13.09;66.02;102619.50;5083096;28;20062;-47
2023/04/09 05:00:06;;;;;;;32.33;18.25;;;;;;;13.08;65.90;102622.06;5082161;28;20059;-43
2023/04/09 05:02:31;;;;;;;32.72;18.60;;;;;;;13.02;66.01;102620.13;5085733;28;20056;-47
2023/04/09 05:04:57;;;;;;;29.80;18.63;;;;;;;13.08;65.87;102622.94;5084265;28;20035;-46
2023/04/09 05:07:22;;;;;;;30.13;18.52;;;;;;;13.16;65.90;102620.59;5079360;28;20040;-45
2023/04/09 05:09:47;;;;;;;29.33;18.15;;;;;;;13.14;65.84;102630.13;5087130;28;20032;-47
2023/04/09 05:12:14;;;;;;;29.63;17.73;;;;;;;13.12;65.76;102624.84;5082772;28;20119;-43
2023/04/09 05:14:39;;;;;;;31.25;17.33;;;;;;;13.14;66.05;102625.78;5086894;28;20031;-45
2023/04/09 05:17:05;;;;;;;30.42;18.60;;;;;;;13.14;66.03;102625.78;5080952;28;20032;-43
2023/04/09 05:19:30;;;;;;;30.27;17.55;;;;;;;13.15;65.78;102622.34;5082959;28;20105;-47
2023/04/09 05:21:56;;;;;;;29.73;17.75;;;;;;;13.17;65.57;102619.78;5064909;28;20047;-45
2023/04/09 05:24:21;;;;;;;29.15;17.25;;;;;;;13.19;65.85;102620.69;5074652;28;20058;-43
2023/04/09 05:26:46;;;;;;;28.70;17.35;;;;;;;13.26;65.53;102610.44;5082879;28;20036;-45
2023/04/09 05:29:12;;;;;;;29.90;17.42;;;;;;;13.30;65.49;102608.78;5078934;28;20592;-43
2023/04/09 05:31:39;;;;;;;30.00;17.85;;;;;;;13.21;65.33;102608.53;5082273;28;20036;-44
2023/04/09 05:34:04;;;;;;;31.10;18.30;;;;;;;13.21;65.64;102609.41;5077702;28;20394;-44
2023/04/09 05:36:31;;;;;;;32.03;18.65;;;;;;;13.13;65.36;102620.50;5083322;28;20032;-45
2023/04/09 05:38:56;;;;;;;29.55;17.67;;;;;;;13.12;65.64;102622.22;5074910;28;20526;-44
2023/04/09 05:41:21;;;;;;;31.45;17.85;;;;;;;13.20;65.57;102622.47;5078289;28;20115;-44
2023/04/09 05:43:47;;;;;;;28.13;17.15;;;;;;;13.30;65.18;102621.88;5082402;28;20687;-44
2023/04/09 05:46:12;;;;;;;28.88;17.30;;;;;;;13.37;65.16;102621.22;5070375;28;20036;-46
2023/04/09 05:48:37;;;;;;;32.35;18.05;;;;;;;13.27;65.23;102612.22;5082668;28;20028;-52
2023/04/09 05:51:03;;;;;;;29.08;17.33;;;;;;;13.38;65.13;102621.28;5079161;28;20153;-45
2023/04/09 05:53:29;;;;;;;31.13;18.20;;;;;;;13.30;65.23;102625.41;5082693;28;20036;-44
2023/04/09 05:55:54;;;;;;;28.50;17.48;;;;;;;13.29;65.42;102618.41;5082299;28;20032;-46
2023/04/09 05:58:20;;;;;;;29.08;17.25;;;;;;;13.38;65.19;102623.00;5060977;28;20036;-47
2023/04/09 06:00:45;;;;;;;30.88;18.38;;;;;;;13.36;64.96;102622.06;5081658;28;20651;-43
2023/04/09 06:03:10;;;;;;;30.23;17.48;;;;;;;13.46;64.94;102620.63;5077788;28;20547;-46
2023/04/09 06:05:36;;;;;;;29.50;17.77;;;;;;;13.49;64.69;102620.69;5081969;28;20415;-43
2023/04/09 06:08:01;;;;;;;29.75;17.98;;;;;;;13.47;64.68;102625.94;5079440;28;20020;-45
2023/04/09 06:10:27;;;;;;;29.42;18.08;;;;;;;13.51;64.44;102613.78;5083460;28;20036;-47
2023/04/09 06:12:52;;;;;;;31.52;18.52;;;;;;;13.58;64.26;102619.25;5082775;28;20551;-43
2023/04/09 06:15:17;;;;;;;29.98;18.35;;;;;;;13.57;64.14;102614.84;5079086;28;20044;-43
2023/04/09 06:17:43;;;;;;;32.85;18.85;;;;;;;13.60;64.05;102617.53;5084394;28;20036;-43
2023/04/09 06:20:09;;;;;;;31.63;19.13;;;;;;;13.60;63.76;102614.94;5083508;28;20043;-43
2023/04/09 06:22:34;;;;;;;30.42;18.60;;;;;;;13.79;63.18;102619.84;5085619;28;20032;-43
2023/04/09 06:25:00;;;;;;;30.10;18.50;;;;;;;13.70;63.22;102627.47;5082844;28;20040;-46
2023/04/09 06:27:25;;;;;;;30.85;18.45;;;;;;;13.81;63.45;102623.41;5089676;28;20039;-48
2023/04/09 06:29:50;;;;;;;31.58;18.77;;;;;;;13.80;63.21;102628.59;5090970;28;20040;-43
2023/04/09 06:32:16;;;;;;;31.95;19.08;;;;;;;13.64;63.41;102632.53;5086245;28;20510;-43
2023/04/09 06:34:41;;;;;;;32.33;19.33;;;;;;;13.69;63.29;102633.56;5086431;28;20115;-45
2023/04/09 06:37:06;;;;;;;30.25;18.67;;;;;;;13.66;63.09;102628.19;5081633;28;20056;-45
2023/04/09 06:39:32;;;;;;;30.05;18.77;;;;;;;13.79;63.16;102634.69;5085398;28;20048;-50
2023/04/09 06:41:57;;;;;;;30.40;17.95;;;;;;;13.79;63.27;102629.44;5085812;28;20111;-44
2023/04/09 06:44:23;;;;;;;30.20;18.23;;;;;;;13.80;63.08;102632.13;5060717;28;20134;-44
2023/04/09 06:46:48;;;;;;;30.95;18.92;;;;;;;13.77;63.13;102641.63;5084541;28;20068;-46
2023/04/09 06:49:13;;;;;;;32.97;18.52;;;;;;;13.79;63.21;102635.56;5082102;28;20050;-43
2023/04/09 06:51:39;;;;;;;32.58;19.40;;;;;;;13.76;62.63;102632.00;5085950;28;20083;-46
2023/04/09 06:54:04;;;;;;;30.83;18.67;;;;;;;13.87;62.65;102632.28;5082166;28;20032;-44
2023/04/09 06:56:29;;;;;;;30.90;19.13;;;;;;;13.79;62.54;102632.06;5085601;28;20032;-49
2023/04/09 06:58:55;;;;;;;30.50;18.55;;;;;;;13.94;62.41;102632.50;5085277;28;20039;-47
2023/04/09 07:01:20;;;;;;;33.90;19.55;;;;;;;13.59;63.01;102625.38;5082211;28;20047;-46
2023/04/09 07:03:45;;;;;;;31.98;18.77;;;;;;;13.83;62.29;102623.47;5088685;28;20107;-44
2023/04/09 07:06:11;;;;;;;31.20;19.08;;;;;;;13.97;62.18;102624.72;5083818;28;20048;-47
2023/04/09 07:08:36;;;;;;;32.60;18.80;;;;;;;14.04;62.34;102625.75;5088830;28;20040;-42
2023/04/09 07:11:02;;;;;;;31.48;19.35;;;;;;;13.88;62.35;102626.19;5081018;28;20032;-45
2023/04/09 07:13:27;;;;;;;31.27;18.40;;;;;;;13.84;62.12;102625.25;5085143;28;20050;-50
2023/04/09 07:15:53;;;;;;;34.42;19.45;;;;;;;13.67;62.93;102629.09;5084702;28;20148;-45
2023/04/09 07:18:19;;;;;;;30.33;19.05;;;;;;;13.81;62.07;102626.03;5080822;28;20547;-45
2023/04/09 07:20:44;;;;;;;32.17;18.67;;;;;;;13.98;62.05;102620.34;5085625;28;20046;-42
2023/04/09 07:23:10;;;;;;;33.42;19.48;;;;;;;14.03;62.00;102617.00;5081990;28;20031;-43
2023/04/09 07:25:35;;;;;;;32.67;18.38;;;;;;;14.08;61.97;102625.91;5066496;28;20024;-46
2023/04/09 07:28:01;;;;;;;35.55;19.77;;;;;;;13.86;61.98;102625.25;5081996;28;20054;-44
2023/04/09 07:30:26;;;;;;;35.30;19.48;;;;;;;13.95;61.94;102623.81;5081155;28;20037;-46
2023/04/09 07:32:51;;;;;;;37.08;19.75;;;;;;;13.97;61.73;102627.31;5080795;28;20032;-44
2023/04/09 07:35:17;;;;;;;34.38;19.83;;;;;;;14.15;61.57;102625.19;5080875;28;20566;-48
2023/04/09 07:37:43;;;;;;;38.53;20.67;;;;;;;14.07;61.56;102624.13;5084185;28;20071;-48
2023/04/09 07:40:08;;;;;;;38.38;20.90;;;;;;;14.27;60.97;102631.66;5080956;28;20032;-46
2023/04/09 07:42:36;;;;;;;46.53;23.25;;;;;;;14.32;60.54;102628.28;5084824;28;20036;-50
2023/04/09 07:45:02;;;;;;;44.90;22.73;;;;;;;14.41;60.13;102627.66;5080412;28;20056;-47
2023/04/09 07:47:28;;;;;;;43.15;22.42;;;;;;;14.45;59.89;102635.66;5085567;28;20512;-46
2023/04/09 07:49:53;;;;;;;48.70;24.20;;;;;;;14.49;59.79;102628.75;5084421;28;20497;-47
2023/04/09 07:52:19;;;;;;;45.80;22.77;;;;;;;14.29;59.87;102625.56;5080616;28;20032;-47
2023/04/09 07:54:44;;;;;;;46.92;23.30;;;;;;;14.39;59.79;102625.00;5083743;28;20036;-44
2023/04/09 07:57:10;;;;;;;47.78;24.17;;;;;;;14.44;59.53;102619.88;5080913;28;20028;-45
2023/04/09 07:59:35;;;;;;;48.10;23.90;;;;;;;14.50;59.53;102620.03;5084704;28;20032;-47
2023/04/09 08:02:01;;;;;;;52.85;25.58;;;;;;;14.30;59.65;102619.47;5081451;28;20046;-46
2023/04/09 08:04:26;;;;;;;59.10;27.35;;;;;;;14.00;60.21;102624.81;5081462;28;20161;-46
2023/04/09 08:06:52;;;;;;;56.60;26.50;;;;;;;14.02;59.85;102624.84;5083878;28;20122;-48
2023/04/09 08:09:20;;;;;;;57.28;27.83;;;;;;;14.30;59.09;102626.47;5080668;28;24446;-44
2023/04/09 08:11:47;;;;;;;57.05;26.77;;;;;;;14.32;59.41;102625.66;5083827;28;20036;-48
2023/04/09 08:14:14;;;;;;;57.10;25.98;;;;;;;14.44;59.17;102627.75;5079698;28;20031;-45
2023/04/09 08:16:40;;;;;;;58.55;27.13;;;;;;;14.33;59.23;102627.44;5065382;28;20549;-45
2023/04/09 08:19:06;;;;;;;62.38;28.48;;;;;;;14.09;59.25;102629.38;5080365;28;20111;-45
2023/04/09 08:21:32;;;;;;;62.05;27.98;;;;;;;14.25;58.65;102623.72;5084154;28;20063;-44
2023/04/09 08:24:03;;;;;;;59.63;27.30;;;;;;;14.25;59.41;102625.47;5065596;28;20203;-44
2023/04/09 08:26:28;;;;;;;59.63;27.13;;;;;;;14.32;59.15;102625.66;5079651;28;20034;-43
2023/04/09 08:28:54;;;;;;;60.47;27.45;;;;;;;14.33;58.90;102630.06;5083409;28;20039;-46
2023/04/09 08:31:19;;;;;;;59.85;28.40;;;;;;;14.20;58.78;102634.09;5079910;28;20062;-46
2023/04/09 08:33:45;;;;;;;61.88;27.88;;;;;;;14.28;59.12;102631.66;5083337;28;20032;-43
2023/04/09 08:36:10;;;;;;;58.00;28.98;;;;;;;14.06;58.68;102640.72;5079467;28;20024;-43
2023/04/09 08:38:36;;;;;;;61.65;27.90;;;;;;;14.47;57.86;102638.31;5083233;28;20681;-47
2023/04/09 08:41:01;;;;;;;60.42;27.73;;;;;;;14.43;58.41;102636.47;5079667;28;20036;-55
2023/04/09 08:43:28;;;;;;;63.90;29.35;;;;;;;14.48;59.00;102642.72;5065852;28;20110;-44
2023/04/09 08:45:58;;;;;;;60.25;29.30;;;;;;;14.39;58.77;102639.88;5076391;28;20075;-50
2023/04/09 08:48:24;;;;;;;61.28;28.25;;;;;;;14.57;57.86;102645.59;5081273;28;20028;-43
2023/04/09 08:50:49;;;;;;;63.13;29.33;;;;;;;14.20;59.19;102636.72;5084952;28;20090;-43
2023/04/09 08:53:16;;;;;;;63.40;30.75;;;;;;;14.13;59.04;102637.41;5082121;28;20406;-45
2023/04/09 08:55:44;;;;;;;61.35;29.23;;;;;;;14.52;58.43;102639.31;5086851;28;20506;-44
2023/04/09 08:58:10;;;;;;;63.72;30.00;;;;;;;14.06;58.92;102642.44;5084168;28;20031;-45
2023/04/09 09:00:36;;;;;;;63.58;29.38;;;;;;;14.27;58.80;102636.88;5068699;28;20024;-43
2023/04/09 09:03:09;;;;;;;62.22;29.13;;;;;;;14.47;58.89;102628.69;5082781;28;20059;-44
2023/04/09 09:05:40;;;;;;;63.90;29.67;;;;;;;14.68;58.32;102637.97;5084525;28;20035;-47
2023/04/09 09:08:07;;;;;;;61.05;30.15;;;;;;;14.56;57.94;102642.06;5081007;28;20039;-46
2023/04/09 09:10:37;;;;;;;65.40;29.75;;;;;;;14.28;58.63;102634.28;5085327;28;20706;-45
2023/04/09 09:13:18;;;;;;;62.10;30.75;;;;;;;14.03;59.42;102637.09;5081610;28;20128;-45
2023/04/09 09:15:46;;;;;;;60.80;29.25;;;;;;;14.33;58.62;102634.44;5084794;28;20494;-43
2023/04/09 09:18:12;;;;;;;57.85;29.52;;;;;;;14.38;58.83;102635.47;5081663;28;20553;-45
2023/04/09 09:20:37;;;;;;;58.95;29.70;;;;;;;14.26;59.17;102641.25;5085018;28;20066;-46
2023/04/09 09:23:02;;;;;;;59.10;29.42;;;;;;;14.15;59.36;102640.94;5081584;28;20032;-43
2023/04/09 09:25:29;;;;;;;61.13;29.70;;;;;;;14.38;58.63;102636.34;5084476;28;20024;-44
2023/04/09 09:28:06;;;;;;;58.72;29.42;;;;;;;14.62;58.29;102630.84;5083261;28;20490;-46
2023/04/09 09:30:33;;;;;;;58.03;29.42;;;;;;;14.61;57.88;102624.69;5081184;28;20942;-49
2023/04/09 09:33:05;;;;;;;56.60;29.05;;;;;;;14.47;58.01;102627.81;5079516;28;20115;-49
2023/04/09 09:35:47;;;;;;;55.83;28.08;;;;;;;14.24;58.06;102621.94;5082985;28;20032;-46
2023/04/09 09:38:12;;;;;;;57.55;29.38;;;;;;;14.29;57.96;102622.94;5073742;28;20036;-51
2023/04/09 09:40:37;;;;;;;58.78;29.38;;;;;;;14.54;57.56;102621.88;5083370;28;20135;-45
2023/04/09 09:43:02;;;;;;;57.92;30.05;;;;;;;14.39;57.94;102619.75;5079536;28;20447;-45
2023/04/09 09:45:28;;;;;;;58.95;30.20;;;;;;;14.65;57.17;102625.63;5082851;28;20028;-44
2023/04/09 09:47:53;;;;;;;60.33;30.50;;;;;;;14.37;57.90;102621.44;5083400;28;20028;-44
2023/04/09 09:50:24;;;;;;;57.30;29.23;;;;;;;14.66;57.69;102619.53;5079185;28;20044;-50
2023/04/09 09:52:52;;;;;;;54.78;28.88;;;;;;;14.87;56.64;102627.06;5082634;28;20032;-44
2023/04/09 09:55:18;;;;;;;57.60;29.70;;;;;;;15.05;55.61;102605.59;5079759;28;20036;-44
2023/04/09 09:57:46;;;;;;;58.70;30.23;;;;;;;15.28;55.27;102610.50;5065286;28;20029;-50
2023/04/09 10:00:13;;;;;;;55.88;29.27;;;;;;;15.30;55.59;102605.28;5081636;28;20448;-44
2023/04/09 10:02:46;;;;;;;61.20;31.10;;;;;;;15.28;55.38;102607.84;5086173;28;20024;-45
2023/04/09 10:05:11;;;;;;;60.35;30.60;;;;;;;15.12;55.18;102602.25;5082335;28;20248;-49
2023/04/09 10:07:37;;;;;;;58.95;30.45;;;;;;;15.13;55.00;102602.25;5086601;28;20134;-44
2023/04/09 10:10:04;;;;;;;59.33;30.35;;;;;;;15.41;54.61;102590.63;5086533;28;20428;-43
2023/04/09 10:12:32;;;;;;;57.53;29.13;;;;;;;15.77;53.70;102599.28;5090560;28;20043;-44
2023/04/09 10:15:03;;;;;;;56.80;29.80;;;;;;;15.68;53.63;102596.44;5087569;28;20028;-47
2023/04/09 10:17:28;;;;;;;57.17;31.42;;;;;;;15.04;54.22;102607.31;5085109;28;20486;-44
2023/04/09 10:20:00;;;;;;;62.53;31.17;;;;;;;15.66;53.38;102594.66;5089817;28;20029;-45
2023/04/09 10:22:30;;;;;;;58.80;30.83;;;;;;;15.66;52.58;102592.91;5085688;28;20390;-44
2023/04/09 10:24:56;;;;;;;55.58;30.45;;;;;;;15.85;52.61;102586.28;5086643;28;20020;-45
2023/04/09 10:27:22;;;;;;;57.33;30.90;;;;;;;15.59;52.38;102587.50;5083057;28;20046;-45
2023/04/09 10:29:48;;;;;;;58.13;29.88;;;;;;;15.76;52.89;102573.81;5087981;28;20028;-45
2023/04/09 10:32:25;;;;;;;53.85;28.80;;;;;;;15.76;52.56;102572.94;5084060;28;20394;-45
2023/04/09 10:34:54;;;;;;;58.20;30.27;;;;;;;15.98;51.54;102577.72;5085721;28;20055;-44
2023/04/09 10:37:22;;;;;;;60.15;30.88;;;;;;;16.05;51.41;102570.84;5083653;28;20040;-44
2023/04/09 10:39:49;;;;;;;55.63;29.23;;;;;;;16.57;50.84;102570.88;5064318;28;20037;-46
2023/04/09 10:42:23;;;;;;;57.20;30.27;;;;;;;16.81;50.57;102572.13;5083592;28;20035;-45
2023/04/09 10:45:07;;;;;;;59.67;30.98;;;;;;;16.97;49.35;102553.91;5086514;28;20544;-45
2023/04/09 10:47:35;;;;;;;55.35;30.38;;;;;;;17.27;49.07;102549.91;5085211;28;20039;-43
2023/04/09 10:50:26;;;;;;;61.45;31.60;;;;;;;17.31;48.86;102551.75;5083395;28;20059;-44
2023/04/09 10:52:57;;;;;;;55.90;30.90;;;;;;;17.35;48.23;102553.53;5074369;28;20054;-45
2023/04/09 10:55:46;;;;;;;60.55;31.60;;;;;;;17.20;48.79;102553.38;5082816;28;20456;-44
2023/04/09 10:58:12;;;;;;;56.20;30.92;;;;;;;17.25;48.48;102549.03;5083066;28;20028;-47
2023/04/09 11:00:39;;;;;;;59.03;31.17;;;;;;;17.64;46.32;102540.72;5086414;28;20031;-44
2023/04/09 11:03:20;;;;;;;58.60;31.77;;;;;;;17.98;47.40;102537.56;5083106;28;20040;-46
2023/04/09 11:05:49;;;;;;;56.78;31.38;;;;;;;18.24;47.02;102536.00;5085713;28;20050;-47
2023/04/09 11:08:15;;;;;;;59.92;31.98;;;;;;;18.09;46.27;102532.38;5083299;28;20028;-43